Time;durP1;ratioP1;P1;durP2;ratioP2;P2;SDS_P1;SDS_P2;PMS_P1;PMS_P2;Temp;Humidity;BMP_temperature;BMP_pressure;BME280_temperature;BME280_humidity;BME280_pressure;Samples;Min_cycle;Max_cycle;Signal;HPM_P1;HPM_P2
2021/05/25 00:00:01;;;;;;;1.77;1.03;;;9.20;99.90;;;;;;5071412;28;20243;-53
2021/05/25 00:02:28;;;;;;;2.70;1.27;;;9.10;99.90;;;;;;5070909;28;20266;-49
2021/05/25 00:04:54;;;;;;;2.47;0.93;;;9.00;99.90;;;;;;5071525;28;20232;-53
2021/05/25 00:07:20;;;;;;;1.57;0.80;;;9.00;99.90;;;;;;5071620;28;20213;-54
2021/05/25 00:09:47;;;;;;;2.57;0.90;;;9.00;99.90;;;;;;5071656;28;20268;-52
2021/05/25 00:12:13;;;;;;;1.17;0.90;;;9.00;99.90;;;;;;5071165;28;20258;-54
2021/05/25 00:14:39;;;;;;;1.13;0.90;;;9.00;99.90;;;;;;5071267;28;20228;-53
2021/05/25 00:17:05;;;;;;;1.00;0.80;;;8.90;99.90;;;;;;5071584;28;20619;-51
2021/05/25 00:19:31;;;;;;;0.77;0.67;;;8.90;99.90;;;;;;5071586;28;20216;-51
2021/05/25 00:21:57;;;;;;;1.43;0.70;;;8.80;99.90;;;;;;5071160;28;20210;-52
2021/05/25 00:24:24;;;;;;;2.83;0.90;;;8.80;99.90;;;;;;5075488;28;20225;-50
2021/05/25 00:26:50;;;;;;;2.43;0.80;;;8.70;99.90;;;;;;5075616;28;20602;-51
2021/05/25 00:29:17;;;;;;;2.20;1.07;;;8.70;99.90;;;;;;5075068;28;20696;-55
2021/05/25 00:31:43;;;;;;;1.90;0.80;;;8.60;99.90;;;;;;5075311;28;20213;-58
2021/05/25 00:34:09;;;;;;;1.20;0.80;;;8.60;99.90;;;;;;5075692;28;20204;-55
2021/05/25 00:36:36;;;;;;;2.83;0.93;;;8.60;99.90;;;;;;5075550;28;20209;-52
2021/05/25 00:39:03;;;;;;;1.63;0.90;;;8.50;99.90;;;;;;5075608;28;20208;-54
2021/05/25 00:41:29;;;;;;;3.80;0.83;;;8.50;99.90;;;;;;5074765;28;20209;-55
2021/05/25 00:43:56;;;;;;;1.90;0.90;;;8.50;99.90;;;;;;5075110;28;20351;-58
2021/05/25 00:46:22;;;;;;;1.20;0.73;;;8.50;99.90;;;;;;5075528;28;20224;-56
2021/05/25 00:48:49;;;;;;;1.57;0.80;;;8.40;99.90;;;;;;5075209;28;20205;-52
2021/05/25 00:51:15;;;;;;;1.63;0.80;;;8.40;99.90;;;;;;5075143;28;20250;-54
2021/05/25 00:53:41;;;;;;;1.63;1.10;;;8.40;99.90;;;;;;5075092;28;20225;-52
2021/05/25 00:56:07;;;;;;;0.80;0.70;;;8.40;99.90;;;;;;5074957;28;20232;-55
2021/05/25 00:58:34;;;;;;;2.80;0.87;;;8.40;99.90;;;;;;5074716;28;20207;-55
2021/05/25 01:01:02;;;;;;;1.87;0.90;;;8.30;99.90;;;;;;5074981;28;20208;-54
2021/05/25 01:03:29;;;;;;;3.27;1.03;;;8.30;99.90;;;;;;5074983;28;20204;-57
2021/05/25 01:05:55;;;;;;;2.37;0.97;;;8.30;99.90;;;;;;5074777;28;20232;-58
2021/05/25 01:08:21;;;;;;;3.23;1.00;;;8.40;99.90;;;;;;5074696;28;20731;-57
2021/05/25 01:10:50;;;;;;;3.67;0.93;;;8.40;99.90;;;;;;5074322;28;20766;-57
2021/05/25 01:13:19;;;;;;;2.33;1.10;;;8.50;99.90;;;;;;5074566;28;20331;-53
2021/05/25 01:15:46;;;;;;;4.20;1.10;;;8.50;99.90;;;;;;5074714;28;20249;-55
2021/05/25 01:18:13;;;;;;;1.07;0.93;;;8.50;99.90;;;;;;5074728;28;20209;-56
2021/05/25 01:20:40;;;;;;;2.57;1.40;;;8.50;99.90;;;;;;5074138;28;20681;-56
2021/05/25 01:23:10;;;;;;;1.43;1.10;;;8.60;99.90;;;;;;5074280;28;20754;-53
2021/05/25 01:25:37;;;;;;;1.63;0.77;;;8.60;99.90;;;;;;5074253;28;20225;-54
2021/05/25 01:28:06;;;;;;;2.57;0.87;;;8.60;99.90;;;;;;5074394;28;20209;-55
2021/05/25 01:30:35;;;;;;;3.47;0.93;;;8.60;99.90;;;;;;5074194;28;20227;-57
2021/05/25 01:33:02;;;;;;;1.60;0.80;;;8.70;99.90;;;;;;5073933;28;20244;-54
2021/05/25 01:35:31;;;;;;;3.80;0.73;;;8.70;99.90;;;;;;5074173;28;20626;-53
2021/05/25 01:37:58;;;;;;;2.13;0.87;;;8.70;99.90;;;;;;5074001;28;20204;-56
2021/05/25 01:40:26;;;;;;;1.33;1.00;;;8.70;99.90;;;;;;5074040;28;20258;-58
2021/05/25 01:42:52;;;;;;;1.70;1.07;;;8.70;99.90;;;;;;5074196;28;20295;-55
2021/05/25 01:45:20;;;;;;;1.20;0.73;;;8.70;99.90;;;;;;5073952;28;20282;-56
2021/05/25 01:47:47;;;;;;;2.07;0.87;;;8.80;99.90;;;;;;5074041;28;20205;-56
2021/05/25 01:50:15;;;;;;;1.30;0.80;;;8.70;99.90;;;;;;5073674;28;20208;-56
2021/05/25 01:52:58;;;;;;;3.40;1.00;;;8.80;99.90;;;;;;5073501;28;20227;-52
2021/05/25 01:55:28;;;;;;;1.23;0.80;;;8.80;99.90;;;;;;5072015;28;20233;-52
2021/05/25 01:57:55;;;;;;;3.23;0.80;;;8.70;99.90;;;;;;5073952;28;20205;-56
2021/05/25 02:00:21;;;;;;;1.20;0.80;;;8.70;99.90;;;;;;5073887;28;20205;-52
2021/05/25 02:02:48;;;;;;;4.03;0.90;;;8.70;99.90;;;;;;5073409;28;20200;-54
2021/05/25 02:05:14;;;;;;;1.87;0.80;;;8.70;99.90;;;;;;5073468;28;20224;-54
2021/05/25 02:07:44;;;;;;;1.83;0.60;;;8.70;99.90;;;;;;5073823;28;20574;-54
2021/05/25 02:10:26;;;;;;;2.33;1.10;;;8.70;99.90;;;;;;5073589;28;20220;-55
2021/05/25 02:12:53;;;;;;;1.43;0.93;;;8.70;99.90;;;;;;5071975;28;20232;-54
2021/05/25 02:15:20;;;;;;;2.67;1.07;;;8.70;99.90;;;;;;5073469;28;20303;-55
2021/05/25 02:17:46;;;;;;;1.10;0.90;;;8.70;99.90;;;;;;5073356;28;20239;-55
2021/05/25 02:20:13;;;;;;;1.63;0.80;;;8.70;99.90;;;;;;5073115;28;20657;-54
2021/05/25 02:22:39;;;;;;;1.70;0.80;;;8.70;99.90;;;;;;5073553;28;20201;-56
2021/05/25 02:25:06;;;;;;;1.30;0.67;;;8.70;99.90;;;;;;5073029;28;20286;-56
2021/05/25 02:27:33;;;;;;;4.40;0.93;;;8.60;99.90;;;;;;5073582;28;20212;-54
2021/05/25 02:29:59;;;;;;;1.53;0.60;;;8.60;99.90;;;;;;5071476;28;20209;-54
2021/05/25 02:32:27;;;;;;;3.93;1.07;;;8.60;99.90;;;;;;5072873;28;20921;-57
2021/05/25 02:34:53;;;;;;;3.53;0.83;;;8.50;99.90;;;;;;5072603;28;20732;-54
2021/05/25 02:37:20;;;;;;;2.27;1.00;;;8.40;99.90;;;;;;5072891;28;20802;-56
2021/05/25 02:39:46;;;;;;;2.00;0.83;;;8.40;99.90;;;;;;5072986;28;20304;-56
2021/05/25 02:42:12;;;;;;;1.80;0.83;;;8.30;99.90;;;;;;5072875;28;20564;-58
2021/05/25 02:44:39;;;;;;;3.73;1.10;;;8.30;99.90;;;;;;5072561;28;20229;-56
2021/05/25 02:47:05;;;;;;;3.27;0.90;;;8.30;99.90;;;;;;5070724;28;20208;-51
2021/05/25 02:49:31;;;;;;;2.17;0.80;;;8.30;99.90;;;;;;5072742;28;20204;-54
2021/05/25 02:51:58;;;;;;;5.37;1.00;;;8.30;99.90;;;;;;5072452;28;20677;-54
2021/05/25 02:54:24;;;;;;;2.10;0.83;;;8.30;99.90;;;;;;5072601;28;20255;-53
2021/05/25 02:56:50;;;;;;;1.80;0.70;;;8.30;99.90;;;;;;5072349;28;20630;-51
2021/05/25 02:59:16;;;;;;;4.73;1.03;;;8.30;99.90;;;;;;5072363;28;20832;-54
2021/05/25 03:01:43;;;;;;;2.57;0.90;;;8.30;99.90;;;;;;5070837;28;20274;-56
2021/05/25 03:04:09;;;;;;;1.07;0.70;;;8.30;99.90;;;;;;5072499;28;20209;-52
2021/05/25 03:06:35;;;;;;;1.13;0.73;;;8.30;99.90;;;;;;5072122;28;20270;-56
2021/05/25 03:09:02;;;;;;;1.63;0.70;;;8.30;99.90;;;;;;5072624;28;20208;-51
2021/05/25 03:11:30;;;;;;;1.83;0.80;;;8.30;99.90;;;;;;5072336;28;20209;-53
2021/05/25 03:13:56;;;;;;;2.53;1.10;;;8.30;99.90;;;;;;5072017;28;20878;-55
2021/05/25 03:16:23;;;;;;;3.23;0.70;;;8.30;99.90;;;;;;5072134;28;20290;-53
2021/05/25 03:18:50;;;;;;;2.90;1.00;;;8.30;99.90;;;;;;5070308;28;20236;-56
2021/05/25 03:21:16;;;;;;;1.17;0.73;;;8.30;99.90;;;;;;5071948;28;20216;-53
2021/05/25 03:23:42;;;;;;;5.10;1.00;;;8.30;99.90;;;;;;5072201;28;20576;-57
2021/05/25 03:26:10;;;;;;;2.20;0.80;;;8.30;99.90;;;;;;5071911;28;20283;-51
2021/05/25 03:28:37;;;;;;;2.10;0.80;;;8.30;99.90;;;;;;5071582;28;20201;-54
2021/05/25 03:31:03;;;;;;;3.90;0.80;;;8.30;99.90;;;;;;5072040;28;20213;-54
2021/05/25 03:33:29;;;;;;;1.70;0.77;;;8.30;99.90;;;;;;5072400;28;20221;-49
2021/05/25 03:35:56;;;;;;;1.40;0.67;;;8.30;99.90;;;;;;5070672;28;20225;-57
2021/05/25 03:38:22;;;;;;;1.40;0.80;;;8.30;99.90;;;;;;5072046;28;20262;-55
2021/05/25 03:40:48;;;;;;;4.27;0.80;;;8.30;99.90;;;;;;5071620;28;20250;-55
2021/05/25 03:43:14;;;;;;;0.57;0.57;;;8.30;99.90;;;;;;5071751;28;20208;-54
2021/05/25 03:45:40;;;;;;;2.17;0.80;;;8.30;99.90;;;;;;5071819;28;20225;-57
2021/05/25 03:48:07;;;;;;;2.80;0.80;;;8.30;99.90;;;;;;5072202;28;20257;-52
2021/05/25 03:50:33;;;;;;;1.47;0.70;;;8.30;99.90;;;;;;5071719;28;20201;-51
2021/05/25 03:53:00;;;;;;;3.53;0.70;;;8.20;99.90;;;;;;5070770;28;20266;-54
2021/05/25 03:55:35;;;;;;;1.47;0.83;;;8.20;99.90;;;;;;5071446;28;20240;-57
2021/05/25 04:00:56;;;;;;;1.60;0.60;;;8.30;99.90;;;;;;5035107;28;20688;-57
2021/05/25 04:03:23;;;;;;;1.53;0.60;;;8.30;99.90;;;;;;5071186;28;20255;-54
2021/05/25 04:05:49;;;;;;;1.40;0.70;;;8.20;99.90;;;;;;5071585;28;20228;-53
2021/05/25 04:08:17;;;;;;;1.77;0.73;;;8.20;99.90;;;;;;5073609;28;20707;-56
2021/05/25 04:10:43;;;;;;;2.73;0.97;;;8.30;99.90;;;;;;5071296;28;20669;-55
2021/05/25 04:13:10;;;;;;;1.67;0.77;;;8.30;99.90;;;;;;5071555;28;20229;-55
2021/05/25 04:15:37;;;;;;;1.07;0.63;;;8.30;99.90;;;;;;5069343;28;20226;-51
2021/05/25 04:18:04;;;;;;;3.13;0.80;;;8.30;99.90;;;;;;5071385;28;20211;-51
2021/05/25 04:20:30;;;;;;;2.13;1.20;;;8.30;99.90;;;;;;5070802;28;20216;-55
2021/05/25 04:22:56;;;;;;;1.37;0.83;;;8.30;99.90;;;;;;5071733;28;20216;-57
2021/05/25 04:25:23;;;;;;;2.23;1.10;;;8.30;99.90;;;;;;5069568;28;20229;-56
2021/05/25 04:27:49;;;;;;;2.23;1.37;;;8.30;99.90;;;;;;5071515;28;20212;-54
2021/05/25 04:30:16;;;;;;;2.83;1.13;;;8.30;99.90;;;;;;5070595;28;20196;-54
2021/05/25 04:32:43;;;;;;;1.80;1.07;;;8.20;99.90;;;;;;5067502;28;20252;-59
2021/05/25 04:35:10;;;;;;;1.67;1.27;;;8.10;99.90;;;;;;5088498;28;20282;-59
2021/05/25 04:37:36;;;;;;;3.00;1.00;;;8.20;99.90;;;;;;5091843;28;20208;-58
2021/05/25 04:40:03;;;;;;;1.83;1.00;;;8.00;99.90;;;;;;5092012;28;20576;-59
2021/05/25 04:42:30;;;;;;;1.60;1.00;;;7.90;99.90;;;;;;5087370;28;20201;-60
2021/05/25 04:44:56;;;;;;;1.27;0.90;;;7.90;99.90;;;;;;5071428;28;20228;-59
2021/05/25 04:47:22;;;;;;;2.90;1.30;;;7.80;99.90;;;;;;5070810;28;20627;-59
2021/05/25 04:49:49;;;;;;;2.50;0.97;;;7.80;99.90;;;;;;5070296;28;20209;-59
2021/05/25 04:52:16;;;;;;;3.10;1.20;;;7.70;99.90;;;;;;5070910;28;20228;-59
2021/05/25 04:54:42;;;;;;;1.07;0.93;;;7.80;99.90;;;;;;5070496;28;20618;-58
2021/05/25 04:57:09;;;;;;;1.53;1.20;;;7.80;99.90;;;;;;5071081;28;20205;-57
2021/05/25 04:59:36;;;;;;;2.10;0.97;;;7.80;99.90;;;;;;5069362;28;20201;-58
2021/05/25 05:02:03;;;;;;;1.83;0.90;;;7.80;99.90;;;;;;5070668;28;20736;-59
2021/05/25 05:04:29;;;;;;;1.53;1.23;;;7.80;99.90;;;;;;5070341;28;20229;-56
2021/05/25 05:06:55;;;;;;;2.30;1.03;;;7.80;99.90;;;;;;5070959;28;20234;-59
2021/05/25 05:09:21;;;;;;;1.70;1.13;;;7.70;99.90;;;;;;5073068;28;20205;-56
2021/05/25 05:11:47;;;;;;;1.90;1.00;;;7.80;99.90;;;;;;5074831;28;20212;-58
2021/05/25 05:14:13;;;;;;;1.27;0.90;;;7.80;99.90;;;;;;5073842;28;20224;-60
2021/05/25 05:16:40;;;;;;;1.27;0.90;;;7.90;99.90;;;;;;5088510;28;20664;-58
2021/05/25 05:19:07;;;;;;;2.73;1.33;;;7.80;99.90;;;;;;5074380;28;20625;-57
2021/05/25 05:21:33;;;;;;;2.40;1.30;;;7.90;99.90;;;;;;5073941;28;20212;-60
2021/05/25 05:23:59;;;;;;;1.30;1.20;;;7.90;99.90;;;;;;5074270;28;20201;-56
2021/05/25 05:26:26;;;;;;;1.90;1.20;;;7.90;99.90;;;;;;5074372;28;20686;-53
2021/05/25 05:28:53;;;;;;;1.77;1.33;;;7.90;1.00;;;;;;5071128;28;20208;-55
2021/05/25 05:31:19;;;;;;;3.40;1.47;;;7.90;1.00;;;;;;5073418;28;20692;-57
2021/05/25 05:33:46;;;;;;;3.13;1.60;;;7.90;1.00;;;;;;5071825;28;20233;-59
2021/05/25 05:36:16;;;;;;;1.80;1.30;;;7.90;1.00;;;;;;5073231;28;20229;-58
2021/05/25 05:38:42;;;;;;;2.13;1.50;;;8.00;1.00;;;;;;5073890;28;20209;-60
2021/05/25 05:41:08;;;;;;;2.37;1.63;;;8.00;1.00;;;;;;5073526;28;20274;-59
2021/05/25 05:43:34;;;;;;;2.90;1.60;;;8.00;1.00;;;;;;5073607;28;20201;-60
2021/05/25 05:46:00;;;;;;;3.10;1.70;;;8.10;1.00;;;;;;5073170;28;20304;-60
2021/05/25 05:48:27;;;;;;;1.53;1.30;;;8.20;1.00;;;;;;5073797;28;20301;-63
2021/05/25 05:50:54;;;;;;;5.70;1.87;;;8.30;1.00;;;;;;5079013;28;20640;-64
2021/05/25 05:53:21;;;;;;;1.47;1.20;;;8.50;1.00;;;;;;5073362;28;20567;-64
2021/05/25 05:55:47;;;;;;;1.90;1.20;;;8.60;1.00;;;;;;5073426;28;20245;-64
2021/05/25 05:58:14;;;;;;;3.37;1.67;;;8.50;1.00;;;;;;5073138;28;20209;-64
2021/05/25 06:00:41;;;;;;;3.97;1.97;;;8.40;1.00;;;;;;5072699;28;20739;-63
2021/05/25 06:03:07;;;;;;;4.53;1.90;;;8.40;1.00;;;;;;5073606;28;20299;-64
2021/05/25 06:05:35;;;;;;;3.00;1.77;;;8.40;1.00;;;;;;5071420;28;20266;-64
2021/05/25 06:08:03;;;;;;;2.87;1.93;;;8.40;1.00;;;;;;5072906;28;20292;-60
2021/05/25 06:10:31;;;;;;;3.97;1.67;;;8.40;1.00;;;;;;5072921;28;20201;-60
2021/05/25 06:12:57;;;;;;;2.93;2.10;;;8.30;1.00;;;;;;5072897;28;20225;-57
2021/05/25 06:15:24;;;;;;;3.03;1.80;;;8.30;1.00;;;;;;5072865;28;20240;-59
2021/05/25 06:17:50;;;;;;;2.27;1.80;;;8.30;1.00;;;;;;5072958;28;20208;-58
2021/05/25 06:20:16;;;;;;;2.60;2.10;;;8.30;1.00;;;;;;5071951;28;20678;-58
2021/05/25 06:22:43;;;;;;;3.97;2.00;;;8.30;1.00;;;;;;5071196;28;20211;-59
2021/05/25 06:25:12;;;;;;;2.97;2.37;;;8.30;1.00;;;;;;5072959;28;20220;-60
2021/05/25 06:27:38;;;;;;;3.83;2.27;;;8.20;1.00;;;;;;5072514;28;20201;-59
2021/05/25 06:30:07;;;;;;;5.77;2.40;;;8.30;1.00;;;;;;5072064;28;20530;-55
2021/05/25 06:32:33;;;;;;;7.87;2.93;;;8.30;1.00;;;;;;5072947;28;20594;-59
2021/05/25 06:34:59;;;;;;;3.97;2.97;;;8.30;1.00;;;;;;5072591;28;20247;-57
2021/05/25 06:37:25;;;;;;;2.63;2.27;;;8.30;1.00;;;;;;5072974;28;20259;-57
2021/05/25 06:39:51;;;;;;;4.17;2.40;;;8.30;1.00;;;;;;5070535;28;20209;-57
2021/05/25 06:42:18;;;;;;;5.37;2.47;;;8.30;1.00;;;;;;5072317;28;20209;-58
2021/05/25 06:44:44;;;;;;;4.80;2.57;;;8.30;1.00;;;;;;5072667;28;20221;-58
2021/05/25 06:47:11;;;;;;;4.67;1.97;;;8.40;1.00;;;;;;5073202;28;20204;-59
2021/05/25 06:49:39;;;;;;;3.27;1.77;;;8.40;1.00;;;;;;5071804;28;20201;-62
2021/05/25 06:52:06;;;;;;;2.63;1.97;;;8.50;1.00;;;;;;5072121;28;20296;-60
2021/05/25 06:54:32;;;;;;;4.27;1.90;;;8.60;1.00;;;;;;5071794;28;20237;-60
2021/05/25 06:56:58;;;;;;;1.67;1.53;;;8.60;1.00;;;;;;5070648;28;20215;-60
2021/05/25 06:59:26;;;;;;;1.97;1.80;;;8.60;1.00;;;;;;5072209;28;20551;-60
2021/05/25 07:01:53;;;;;;;2.40;1.80;;;8.60;1.00;;;;;;5072222;28;20205;-61
2021/05/25 07:04:19;;;;;;;3.13;1.83;;;8.70;1.00;;;;;;5072059;28;20225;-58
2021/05/25 07:06:46;;;;;;;3.43;1.67;;;8.60;1.00;;;;;;5072076;28;20205;-60
2021/05/25 07:09:12;;;;;;;1.60;1.30;;;8.50;1.00;;;;;;5071699;28;20201;-60
2021/05/25 07:11:38;;;;;;;1.50;1.40;;;8.20;1.00;;;;;;5070719;28;20297;-59
2021/05/25 07:14:05;;;;;;;1.97;1.47;;;8.10;1.00;;;;;;5091810;28;20789;-55
2021/05/25 07:16:32;;;;;;;1.83;1.20;;;8.00;1.00;;;;;;5092151;28;20211;-64
2021/05/25 07:18:58;;;;;;;4.13;1.37;;;8.00;1.00;;;;;;5091927;28;20348;-63
2021/05/25 07:21:24;;;;;;;2.07;1.00;;;8.00;1.00;;;;;;5077702;28;20266;-59
2021/05/25 07:23:51;;;;;;;2.90;1.43;;;7.90;1.00;;;;;;5071468;28;20208;-60
2021/05/25 07:26:17;;;;;;;2.00;1.63;;;7.90;1.00;;;;;;5071372;28;20286;-58
2021/05/25 07:28:43;;;;;;;4.07;1.80;;;7.80;1.00;;;;;;5069878;28;20201;-59
2021/05/25 07:31:10;;;;;;;2.23;1.20;;;7.80;1.00;;;;;;5071385;28;20205;-58
2021/05/25 07:33:37;;;;;;;2.30;1.23;;;7.90;1.00;;;;;;5071295;28;20713;-56
2021/05/25 07:36:04;;;;;;;2.00;1.40;;;7.80;1.00;;;;;;5071379;28;20251;-60
2021/05/25 07:38:30;;;;;;;1.83;1.50;;;8.00;1.00;;;;;;5071242;28;20208;-59
2021/05/25 07:40:56;;;;;;;1.60;1.10;;;8.00;1.00;;;;;;5071339;28;20232;-60
2021/05/25 07:43:22;;;;;;;2.80;1.37;;;8.00;1.00;;;;;;5071323;28;20205;-56
2021/05/25 07:45:48;;;;;;;1.73;1.30;;;8.10;1.00;;;;;;5071373;28;20717;-55
2021/05/25 07:48:15;;;;;;;2.17;1.80;;;8.30;4.10;;;;;;5071456;28;20592;-56
2021/05/25 07:50:42;;;;;;;2.67;1.70;;;8.80;85.20;;;;;;5071142;28;20869;-55
2021/05/25 07:53:08;;;;;;;2.53;1.50;;;9.10;61.90;;;;;;5070719;28;20693;-57
2021/05/25 07:55:35;;;;;;;1.73;1.33;;;9.10;1.00;;;;;;5071089;28;20236;-58
2021/05/25 07:58:02;;;;;;;2.63;1.80;;;9.20;1.00;;;;;;5071348;28;20293;-64
2021/05/25 08:00:29;;;;;;;2.17;1.70;;;9.20;1.00;;;;;;5071043;28;20719;-57
2021/05/25 08:02:56;;;;;;;1.63;1.43;;;9.20;1.00;;;;;;5071578;28;20288;-58
2021/05/25 08:05:24;;;;;;;2.50;1.77;;;9.20;1.00;;;;;;5071648;28;20221;-58
2021/05/25 08:07:52;;;;;;;2.33;1.53;;;9.00;1.00;;;;;;5071446;28;20209;-64
2021/05/25 08:10:18;;;;;;;2.43;2.10;;;8.70;1.00;;;;;;5072133;28;20444;-60
2021/05/25 08:12:44;;;;;;;2.40;1.90;;;8.60;1.00;;;;;;5072234;28;20708;-62
2021/05/25 08:15:12;;;;;;;3.70;1.93;;;8.50;1.00;;;;;;5072844;28;20297;-63
2021/05/25 08:17:49;;;;;;;2.60;2.30;;;8.50;1.00;;;;;;5092937;28;20265;-63
2021/05/25 08:20:16;;;;;;;2.50;2.30;;;8.60;1.00;;;;;;5092694;28;20208;-63
2021/05/25 08:22:43;;;;;;;2.33;2.00;;;8.80;1.00;;;;;;5092344;28;20265;-63
2021/05/25 08:25:12;;;;;;;3.77;1.83;;;9.00;1.00;;;;;;5092870;28;20224;-62
2021/05/25 08:27:38;;;;;;;2.43;1.90;;;9.20;1.00;;;;;;5092877;28;20219;-60
2021/05/25 08:30:06;;;;;;;2.30;2.10;;;9.30;1.00;;;;;;5091768;28;20208;-58
2021/05/25 08:32:32;;;;;;;2.40;2.10;;;9.30;1.00;;;;;;5091167;28;20281;-61
2021/05/25 08:34:59;;;;;;;4.43;2.47;;;9.50;1.00;;;;;;5091622;28;20226;-56
2021/05/25 08:37:25;;;;;;;2.50;2.10;;;9.70;1.00;;;;;;5092478;28;20257;-62
2021/05/25 08:39:51;;;;;;;2.20;2.00;;;9.80;1.00;;;;;;5092043;28;20209;-60
2021/05/25 08:42:18;;;;;;;4.30;3.10;;;9.70;1.00;;;;;;5092912;28;20230;-61
2021/05/25 08:44:44;;;;;;;4.60;3.17;;;9.50;1.00;;;;;;5094982;28;20220;-62
2021/05/25 08:47:12;;;;;;;4.27;3.10;;;9.70;1.00;;;;;;5099282;28;20587;-62
2021/05/25 08:49:41;;;;;;;3.23;2.97;;;9.80;1.00;;;;;;5102760;28;20218;-61
2021/05/25 08:52:08;;;;;;;4.53;3.37;;;9.80;1.00;;;;;;5102047;28;20218;-61
2021/05/25 08:54:34;;;;;;;3.90;2.93;;;9.80;1.00;;;;;;5094772;28;20320;-62
2021/05/25 08:57:01;;;;;;;3.83;2.87;;;9.70;1.00;;;;;;5095008;28;20210;-63
2021/05/25 08:59:28;;;;;;;3.40;3.07;;;9.60;1.00;;;;;;5094516;28;20299;-61
2021/05/25 09:01:54;;;;;;;4.30;3.07;;;9.70;1.00;;;;;;5094489;28;20209;-59
2021/05/25 09:04:20;;;;;;;3.50;3.00;;;9.70;1.00;;;;;;5095244;28;20676;-59
2021/05/25 09:06:49;;;;;;;3.83;3.53;;;9.60;1.00;;;;;;5095508;28;20210;-59
2021/05/25 09:09:16;;;;;;;5.07;3.70;;;9.70;1.00;;;;;;5095162;28;20296;-59
2021/05/25 09:12:05;;;;;;;28.07;6.03;;;9.60;1.00;;;;;;5095179;28;20206;-58
2021/05/25 09:14:34;;;;;;;5.73;4.20;;;9.70;1.00;;;;;;5089148;28;20230;-60
2021/05/25 09:17:17;;;;;;;6.03;4.20;;;9.80;1.00;;;;;;5095020;28;20201;-58
2021/05/25 09:19:47;;;;;;;8.17;5.10;;;10.10;1.00;;;;;;5094556;28;20251;-58
2021/05/25 09:22:31;;;;;;;11.93;4.63;;;10.50;1.00;;;;;;5094406;28;20207;-61
2021/05/25 09:25:01;;;;;;;4.57;4.17;;;10.60;99.90;;;;;;5094244;28;20228;-58
2021/05/25 09:27:28;;;;;;;3.87;3.47;;;10.60;99.90;;;;;;5094612;28;20261;-60
2021/05/25 09:30:17;;;;;;;4.20;3.83;;;10.70;99.90;;;;;;5094060;28;20217;-62
2021/05/25 09:32:46;;;;;;;3.93;3.20;;;10.70;99.90;;;;;;5079582;28;20285;-60
2021/05/25 09:35:14;;;;;;;4.67;3.67;;;10.80;99.90;;;;;;5073114;28;20220;-60
2021/05/25 09:37:43;;;;;;;3.73;3.43;;;10.80;99.90;;;;;;5074103;28;20207;-57
2021/05/25 09:40:10;;;;;;;3.87;3.50;;;10.80;99.90;;;;;;5073457;28;20213;-64
2021/05/25 09:42:36;;;;;;;5.13;4.43;;;10.90;99.90;;;;;;5073729;28;20205;-62
2021/05/25 09:45:04;;;;;;;6.47;5.10;;;11.30;99.90;;;;;;5073356;28;20255;-62
2021/05/25 09:47:36;;;;;;;6.67;5.07;;;11.80;99.90;;;;;;5073692;28;20205;-64
2021/05/25 09:50:04;;;;;;;5.93;5.33;;;11.90;99.90;;;;;;5072011;28;20262;-64
2021/05/25 09:52:30;;;;;;;6.27;5.40;;;12.10;99.90;;;;;;5073856;28;20209;-64
2021/05/25 09:55:07;;;;;;;5.20;4.70;;;12.20;99.90;;;;;;5071680;28;20255;-64
2021/05/25 09:57:45;;;;;;;4.33;3.93;;;11.90;99.90;;;;;;5073534;28;20204;-66
2021/05/25 10:00:29;;;;;;;4.07;3.67;;;11.70;99.90;;;;;;5072660;28;20205;-67
2021/05/25 10:03:09;;;;;;;3.73;3.40;;;11.40;99.90;;;;;;5073576;28;20582;-64
2021/05/25 10:05:36;;;;;;;6.13;4.00;;;11.30;99.90;;;;;;5073611;28;20276;-64
2021/05/25 10:08:03;;;;;;;4.67;3.50;;;11.30;99.90;;;;;;5070938;28;20212;-62
2021/05/25 10:10:30;;;;;;;4.70;3.87;;;11.50;99.90;;;;;;5072615;28;20686;-62
2021/05/25 10:12:58;;;;;;;4.57;4.00;;;11.60;99.90;;;;;;5073688;28;20225;-65
2021/05/25 10:15:25;;;;;;;3.90;3.50;;;11.70;99.90;;;;;;5073139;28;20236;-62
2021/05/25 10:20:52;;;;;;;4.50;4.10;;;11.70;99.90;;;;;;5010510;28;20222;-56
2021/05/25 10:23:19;;;;;;;4.93;4.03;;;11.30;99.90;;;;;;5008650;28;20265;-59
2021/05/25 10:25:47;;;;;;;6.67;4.63;;;11.20;99.90;;;;;;5038006;28;20225;-57
2021/05/25 10:28:14;;;;;;;6.97;4.73;;;11.40;99.90;;;;;;5072751;28;20652;-58
2021/05/25 10:30:44;;;;;;;4.80;4.33;;;11.60;99.90;;;;;;5072662;28;20201;-62
2021/05/25 10:33:23;;;;;;;3.50;3.20;;;11.90;99.90;;;;;;5072717;28;20228;-55
2021/05/25 10:35:50;;;;;;;2.97;1.93;;;12.10;99.90;;;;;;5072603;28;20228;-62
2021/05/25 10:38:18;;;;;;;2.27;1.70;;;11.60;99.90;;;;;;5070985;28;20208;-53
2021/05/25 10:40:46;;;;;;;2.37;2.10;;;10.70;99.90;;;;;;5072220;28;20268;-56
2021/05/25 10:43:52;;;;;;;3.40;1.93;;;10.00;99.90;;;;;;5072697;28;20214;-58
2021/05/25 10:46:25;;;;;;;5.33;2.00;;;9.60;99.90;;;;;;5065651;28;20233;-59
2021/05/25 10:49:08;;;;;;;5.37;2.27;;;9.40;99.90;;;;;;5072019;28;20212;-59
2021/05/25 10:52:15;;;;;;;4.40;2.03;;;9.20;99.90;;;;;;5072428;28;20673;-57
2021/05/25 10:54:47;;;;;;;3.90;2.30;;;9.10;99.90;;;;;;5073432;28;20248;-58
2021/05/25 10:57:37;;;;;;;5.23;2.60;;;9.00;99.90;;;;;;5070301;28;20209;-63
2021/05/25 11:00:09;;;;;;;4.43;3.27;;;9.00;1.00;;;;;;5071786;28;20218;-59
2021/05/25 11:02:46;;;;;;;5.40;3.03;;;9.10;1.00;;;;;;5071702;28;20205;-60
2021/05/25 11:05:42;;;;;;;6.43;3.50;;;9.20;1.00;;;;;;5071747;28;20221;-58
2021/05/25 11:08:29;;;;;;;7.33;4.33;;;9.40;1.00;;;;;;5071670;28;20619;-60
2021/05/25 11:11:12;;;;;;;7.63;4.53;;;9.60;1.00;;;;;;5071331;28;20209;-60
2021/05/25 11:13:43;;;;;;;10.20;5.10;;;9.70;1.00;;;;;;5061376;28;20270;-59
2021/05/25 11:16:16;;;;;;;7.83;5.60;;;9.60;1.00;;;;;;5092211;28;20226;-60
2021/05/25 11:18:46;;;;;;;6.23;5.57;;;9.60;1.00;;;;;;5092275;28;20540;-61
2021/05/25 11:21:58;;;;;;;7.67;5.70;;;9.70;1.00;;;;;;5079169;28;20210;-58
2021/05/25 11:24:29;;;;;;;6.87;5.87;;;9.70;1.00;;;;;;5072173;28;20227;-60
2021/05/25 11:27:00;;;;;;;10.93;7.50;;;9.70;1.00;;;;;;5071955;28;20242;-60
2021/05/25 11:29:28;;;;;;;7.13;4.70;;;9.70;1.00;;;;;;5069397;28;20238;-58
2021/05/25 11:31:57;;;;;;;5.80;3.80;;;9.40;1.00;;;;;;5070964;28;20871;-60
2021/05/25 11:34:24;;;;;;;3.10;2.00;;;8.90;1.00;;;;;;5071668;28;20229;-63
2021/05/25 11:37:00;;;;;;;2.10;1.67;;;8.60;1.00;;;;;;5089166;28;20294;-61
2021/05/25 11:39:26;;;;;;;2.33;1.60;;;8.30;1.00;;;;;;5091241;28;20298;-62
2021/05/25 11:41:53;;;;;;;4.50;2.30;;;8.10;1.00;;;;;;5091376;28;20200;-61
2021/05/25 11:44:22;;;;;;;4.70;3.23;;;8.00;1.00;;;;;;5091518;28;20200;-61
2021/05/25 11:46:50;;;;;;;6.43;3.63;;;8.00;1.00;;;;;;5074674;28;20216;-61
2021/05/25 11:49:17;;;;;;;6.20;4.00;;;7.90;1.00;;;;;;5071256;28;20205;-61
2021/05/25 11:51:44;;;;;;;5.83;4.63;;;8.00;13.70;;;;;;5070845;28;20228;-59
2021/05/25 11:54:14;;;;;;;5.40;4.90;;;8.10;49.70;;;;;;5070991;28;20724;-60
2021/05/25 11:56:45;;;;;;;6.20;5.57;;;8.10;89.80;;;;;;5071380;28;20209;-61
2021/05/25 11:59:15;;;;;;;7.67;6.47;;;8.20;99.90;;;;;;5071191;28;20212;-60
2021/05/25 12:01:46;;;;;;;10.07;7.73;;;8.30;99.90;;;;;;5071501;28;20209;-60
2021/05/25 12:04:13;;;;;;;18.27;8.20;;;8.60;99.90;;;;;;5069294;28;20202;-57
2021/05/25 12:06:47;;;;;;;11.70;8.40;;;8.80;99.90;;;;;;5071321;28;20291;-58
2021/05/25 12:09:13;;;;;;;15.13;10.23;;;9.20;99.90;;;;;;5070842;28;20206;-59
2021/05/25 12:11:41;;;;;;;15.03;13.07;;;9.70;99.90;;;;;;5071227;28;20262;-59
2021/05/25 12:14:08;;;;;;;10.10;8.70;;;10.20;1.00;;;;;;5071141;28;20842;-61
2021/05/25 12:16:34;;;;;;;10.10;8.10;;;10.40;99.90;;;;;;5071751;28;20208;-61
2021/05/25 12:19:01;;;;;;;10.00;7.43;;;10.30;99.90;;;;;;5070265;28;20203;-62
2021/05/25 12:21:28;;;;;;;12.00;8.97;;;10.30;74.70;;;;;;5068808;28;20210;-65
2021/05/25 12:23:54;;;;;;;10.57;9.47;;;10.30;50.60;;;;;;5070940;28;20214;-61
2021/05/25 12:26:22;;;;;;;15.33;11.27;;;10.30;84.00;;;;;;5071071;28;20228;-60
2021/05/25 12:28:50;;;;;;;13.17;9.73;;;10.60;99.90;;;;;;5070741;28;20227;-61
2021/05/25 12:31:17;;;;;;;14.20;10.23;;;10.90;99.90;;;;;;5070409;28;20744;-61
2021/05/25 12:33:46;;;;;;;14.27;11.10;;;11.10;99.90;;;;;;5070745;28;20235;-62
2021/05/25 12:36:15;;;;;;;12.40;9.23;;;11.50;99.90;;;;;;5068685;28;20315;-61
2021/05/25 12:38:53;;;;;;;14.37;8.73;;;11.70;1.00;;;;;;5070334;28;20211;-60
2021/05/25 12:41:20;;;;;;;12.00;8.40;;;11.70;1.00;;;;;;5070728;28;20208;-61
2021/05/25 12:43:46;;;;;;;13.73;8.70;;;11.60;1.00;;;;;;5071190;28;20204;-63
2021/05/25 12:46:12;;;;;;;14.20;9.53;;;11.40;1.00;;;;;;5071267;28;20231;-52
2021/05/25 12:48:40;;;;;;;19.60;10.57;;;11.10;1.00;;;;;;5071621;28;20218;-68
2021/05/25 12:51:07;;;;;;;7.10;5.57;;;10.70;1.00;;;;;;5070623;28;20723;-64
2021/05/25 12:53:51;;;;;;;5.43;4.07;;;9.70;1.00;;;;;;5069251;28;20594;-63
2021/05/25 12:56:19;;;;;;;5.53;3.57;;;9.10;1.00;;;;;;5071202;28;20228;-63
2021/05/25 12:58:46;;;;;;;7.73;4.47;;;8.80;1.00;;;;;;5070752;28;20212;-64
2021/05/25 13:01:26;;;;;;;6.17;4.77;;;8.60;1.00;;;;;;5070583;28;20209;-64
2021/05/25 13:03:53;;;;;;;6.97;4.70;;;8.60;1.00;;;;;;5071512;28;20204;-64
2021/05/25 13:06:22;;;;;;;10.33;5.10;;;8.50;1.00;;;;;;5072154;28;20225;-63
2021/05/25 13:08:51;;;;;;;8.00;5.00;;;8.60;1.00;;;;;;5070549;28;20251;-63